createdAt,value
2017-12-17T00:00:24.920Z,83.40
2017-12-17T00:00:58.686Z,83.40
2017-12-17T00:01:32.029Z,83.40
2017-12-17T00:02:05.692Z,83.40
2017-12-17T00:02:39.583Z,83.40
2017-12-17T00:03:13.284Z,83.40
2017-12-17T00:03:47.994Z,83.30
2017-12-17T00:04:22.504Z,83.20
2017-12-17T00:04:56.925Z,83.20
2017-12-17T00:05:29.931Z,83.20
2017-12-17T00:06:03.253Z,83.20
2017-12-17T00:06:36.242Z,83.20
2017-12-17T00:07:09.991Z,83.30
2017-12-17T00:07:43.348Z,83.30
2017-12-17T00:08:16.895Z,83.20
2017-12-17T00:08:50.994Z,83.20
2017-12-17T00:09:24.318Z,83.20
2017-12-17T00:09:57.634Z,83.20
2017-12-17T00:10:30.633Z,83.20
2017-12-17T00:11:04.387Z,83.20
2017-12-17T00:11:37.709Z,83.20
2017-12-17T00:12:11.803Z,83.20
2017-12-17T00:12:45.605Z,83.20
2017-12-17T00:13:19.542Z,83.10
2017-12-17T00:13:52.976Z,83.10
2017-12-17T00:14:26.735Z,83.50
2017-12-17T00:15:00.054Z,83.00
2017-12-17T00:15:34.148Z,83.00
2017-12-17T00:16:07.930Z,83.00
2017-12-17T00:16:41.705Z,83.20
2017-12-17T00:17:15.362Z,82.90
2017-12-17T00:17:48.691Z,82.90
2017-12-17T00:18:22.354Z,82.80
2017-12-17T00:18:55.675Z,82.80
2017-12-17T00:19:29.763Z,82.90
2017-12-17T00:20:04.593Z,82.80
2017-12-17T00:20:38.350Z,82.80
2017-12-17T00:21:11.669Z,82.80
2017-12-17T00:21:46.106Z,82.80
2017-12-17T00:22:19.103Z,82.80
2017-12-17T00:22:52.106Z,83.40
2017-12-17T00:23:25.087Z,82.80
2017-12-17T00:23:59.204Z,83.00
2017-12-17T00:24:32.199Z,82.80
2017-12-17T00:25:05.193Z,82.80
2017-12-17T00:25:38.202Z,82.80
2017-12-17T00:26:12.414Z,82.90
2017-12-17T00:26:46.855Z,83.60
2017-12-17T00:27:20.527Z,83.00
2017-12-17T00:27:54.237Z,83.00
2017-12-17T00:28:27.919Z,83.00
2017-12-17T00:29:01.585Z,83.00
2017-12-17T00:29:35.715Z,83.10
2017-12-17T00:30:09.175Z,83.10
2017-12-17T00:30:43.598Z,83.10
2017-12-17T00:31:17.261Z,83.00
2017-12-17T00:31:52.172Z,83.10
2017-12-17T00:32:27.552Z,83.20
2017-12-17T00:33:01.539Z,83.10
2017-12-17T00:33:35.227Z,83.20
2017-12-17T00:34:08.883Z,83.20
2017-12-17T00:34:43.456Z,83.40
2017-12-17T00:35:17.118Z,83.40
2017-12-17T00:35:50.777Z,83.40
2017-12-17T00:36:25.202Z,84.00
2017-12-17T00:36:58.847Z,83.40
2017-12-17T00:37:32.652Z,83.40
2017-12-17T00:38:06.314Z,83.40
2017-12-17T00:38:39.976Z,83.40
2017-12-17T00:39:13.631Z,83.50
2017-12-17T00:39:48.059Z,83.50
2017-12-17T00:40:21.723Z,83.50
2017-12-17T00:40:56.143Z,83.60
2017-12-17T00:41:29.799Z,83.50
2017-12-17T00:42:03.605Z,83.60
2017-12-17T00:42:36.960Z,83.70
2017-12-17T00:43:10.648Z,83.70
2017-12-17T00:43:44.372Z,83.70
2017-12-17T00:44:18.043Z,83.80
2017-12-17T00:44:51.720Z,83.70
2017-12-17T00:45:25.214Z,83.70
2017-12-17T00:45:58.588Z,83.80
2017-12-17T00:46:32.410Z,83.80
2017-12-17T00:47:05.906Z,83.80
2017-12-17T00:47:40.335Z,84.00
2017-12-17T00:48:14.054Z,84.00
2017-12-17T00:48:47.731Z,84.00
2017-12-17T00:49:21.064Z,83.90
2017-12-17T00:49:55.481Z,83.60
2017-12-17T00:50:29.581Z,84.00
2017-12-17T00:51:03.715Z,84.00
2017-12-17T00:51:37.377Z,83.90
2017-12-17T00:52:11.050Z,83.80
2017-12-17T00:52:45.182Z,83.90
2017-12-17T00:53:18.899Z,83.90
2017-12-17T00:53:52.567Z,83.90
2017-12-17T00:54:25.901Z,83.90
2017-12-17T00:54:59.562Z,83.90
2017-12-17T00:55:33.250Z,84.10
2017-12-17T00:56:06.931Z,83.90
2017-12-17T00:56:40.605Z,83.90
2017-12-17T00:57:14.271Z,83.90
2017-12-17T00:57:47.955Z,83.80
2017-12-17T00:58:22.427Z,83.90
2017-12-17T00:58:57.667Z,83.90
2017-12-17T00:59:31.333Z,84.00
2017-12-17T01:00:04.667Z,84.00
2017-12-17T01:00:39.094Z,84.10
2017-12-17T01:01:12.762Z,84.00
2017-12-17T01:01:47.260Z,84.10
2017-12-17T01:02:21.710Z,84.20
2017-12-17T01:02:55.414Z,84.10
2017-12-17T01:03:29.140Z,84.20
2017-12-17T01:04:02.937Z,84.20
2017-12-17T01:04:36.601Z,84.30
2017-12-17T01:05:10.262Z,84.30
2017-12-17T01:05:43.923Z,84.30
2017-12-17T01:06:18.392Z,84.40
2017-12-17T01:06:52.062Z,84.40
2017-12-17T01:07:25.742Z,84.40
2017-12-17T01:07:59.415Z,84.40
2017-12-17T01:08:33.109Z,84.40
2017-12-17T01:09:06.783Z,84.60
2017-12-17T01:09:40.465Z,84.50
2017-12-17T01:10:14.918Z,84.50
2017-12-17T01:10:48.595Z,84.50
2017-12-17T01:11:22.253Z,84.40
2017-12-17T01:11:56.708Z,84.50
2017-12-17T01:12:30.381Z,84.40
2017-12-17T01:13:03.738Z,85.00
2017-12-17T01:13:38.483Z,84.30
2017-12-17T01:14:12.168Z,84.30
2017-12-17T01:14:46.041Z,84.20
2017-12-17T01:15:19.044Z,84.20
2017-12-17T01:15:52.102Z,84.30
2017-12-17T01:16:25.768Z,84.30
2017-12-17T01:16:59.545Z,84.20
2017-12-17T01:17:33.314Z,84.20
2017-12-17T01:18:06.639Z,84.20
2017-12-17T01:18:39.995Z,84.20
2017-12-17T01:19:14.122Z,84.10
2017-12-17T01:19:47.119Z,84.10
2017-12-17T01:20:20.445Z,84.00
2017-12-17T01:20:54.095Z,84.00
2017-12-17T01:21:27.430Z,83.90
2017-12-17T01:22:01.857Z,83.80
2017-12-17T01:22:35.526Z,83.80
2017-12-17T01:23:09.639Z,84.40
2017-12-17T01:23:44.109Z,83.70
2017-12-17T01:24:17.775Z,83.60
2017-12-17T01:24:51.446Z,83.60
2017-12-17T01:25:25.111Z,83.60
2017-12-17T01:25:59.560Z,83.60
2017-12-17T01:26:33.215Z,83.60
2017-12-17T01:27:06.888Z,83.50
2017-12-17T01:27:41.308Z,83.50
2017-12-17T01:28:15.439Z,83.50
2017-12-17T01:28:49.151Z,83.50
2017-12-17T01:29:22.818Z,83.50
2017-12-17T01:29:56.463Z,83.50
2017-12-17T01:30:30.880Z,83.40
2017-12-17T01:31:05.290Z,83.40
2017-12-17T01:31:39.387Z,83.30
2017-12-17T01:32:13.798Z,83.40
2017-12-17T01:32:47.454Z,83.30
2017-12-17T01:33:21.109Z,83.20
2017-12-17T01:33:54.796Z,83.20
2017-12-17T01:34:28.447Z,83.20
2017-12-17T01:35:02.862Z,83.10
2017-12-17T01:35:37.915Z,83.10
2017-12-17T01:36:11.577Z,83.00
2017-12-17T01:36:45.266Z,83.00
2017-12-17T01:37:18.948Z,83.00
2017-12-17T01:37:53.437Z,82.90
2017-12-17T01:38:27.107Z,82.90
2017-12-17T01:39:00.782Z,82.90
2017-12-17T01:39:34.455Z,82.90
2017-12-17T01:40:07.778Z,82.80
2017-12-17T01:40:41.088Z,82.80
2017-12-17T01:41:14.846Z,82.60
2017-12-17T01:41:48.183Z,82.60
2017-12-17T01:42:21.836Z,82.70
2017-12-17T01:42:54.827Z,82.60
2017-12-17T01:43:28.151Z,82.60
2017-12-17T01:44:01.855Z,82.40
2017-12-17T01:44:34.871Z,82.30
2017-12-17T01:45:08.619Z,82.10
2017-12-17T01:45:41.937Z,82.10
2017-12-17T01:46:16.370Z,82.00
2017-12-17T01:46:49.379Z,82.00
2017-12-17T01:47:22.359Z,81.90
2017-12-17T01:47:55.707Z,82.50
2017-12-17T01:48:28.699Z,81.80
2017-12-17T01:49:01.728Z,81.70
2017-12-17T01:49:35.482Z,81.60
2017-12-17T01:50:08.558Z,81.60
2017-12-17T01:50:42.458Z,81.70
2017-12-17T01:51:15.459Z,81.70
2017-12-17T01:51:49.237Z,81.70
2017-12-17T01:52:22.221Z,81.60
2017-12-17T01:52:56.311Z,81.40
2017-12-17T01:53:29.306Z,81.40
2017-12-17T01:54:02.331Z,81.40
2017-12-17T01:54:35.314Z,81.30
2017-12-17T01:55:08.322Z,81.20
2017-12-17T01:55:42.097Z,81.20
2017-12-17T01:56:15.424Z,81.20
2017-12-17T01:56:48.423Z,81.10
2017-12-17T01:57:21.737Z,81.00
2017-12-17T01:57:55.497Z,81.00
2017-12-17T01:58:28.518Z,80.90
2017-12-17T01:59:02.678Z,80.90
2017-12-17T01:59:35.692Z,80.90
2017-12-17T02:00:09.464Z,81.00
2017-12-17T02:00:42.440Z,81.00
2017-12-17T02:01:15.761Z,80.90
2017-12-17T02:01:49.411Z,80.80
2017-12-17T02:02:23.837Z,81.20
2017-12-17T02:02:58.262Z,80.30
2017-12-17T02:03:31.575Z,80.30
2017-12-17T02:04:05.260Z,80.40
2017-12-17T02:04:38.947Z,80.40
2017-12-17T02:05:12.606Z,80.50
2017-12-17T02:05:45.620Z,80.60
2017-12-17T02:06:18.618Z,80.70
2017-12-17T02:06:52.013Z,80.70
2017-12-17T02:07:25.767Z,80.60
2017-12-17T02:07:58.765Z,80.60
2017-12-17T02:08:31.755Z,80.70
2017-12-17T02:09:05.878Z,80.70
2017-12-17T02:09:38.868Z,80.60
2017-12-17T02:10:11.860Z,80.70
2017-12-17T02:10:45.183Z,80.70
2017-12-17T02:11:19.282Z,80.80
2017-12-17T02:11:53.383Z,80.80
2017-12-17T02:12:27.142Z,80.80
2017-12-17T02:13:00.146Z,80.80
2017-12-17T02:13:33.899Z,80.90
2017-12-17T02:14:06.936Z,80.90
2017-12-17T02:14:39.934Z,81.00
2017-12-17T02:15:13.610Z,81.10
2017-12-17T02:15:46.743Z,81.20
2017-12-17T02:16:20.830Z,81.50
2017-12-17T02:16:53.818Z,81.20
2017-12-17T02:17:27.898Z,81.30
2017-12-17T02:18:00.887Z,81.20
2017-12-17T02:18:34.663Z,81.30
2017-12-17T02:19:07.701Z,81.30
2017-12-17T02:19:40.694Z,81.30
2017-12-17T02:20:13.696Z,81.30
2017-12-17T02:20:46.726Z,81.30
2017-12-17T02:21:19.710Z,81.30
2017-12-17T02:21:52.704Z,81.20
2017-12-17T02:22:25.696Z,81.20
2017-12-17T02:22:59.451Z,81.30
2017-12-17T02:23:32.442Z,81.20
2017-12-17T02:24:05.447Z,81.30
2017-12-17T02:24:39.226Z,81.30
2017-12-17T02:25:13.995Z,81.40
2017-12-17T02:25:47.039Z,81.40
2017-12-17T02:26:20.037Z,81.40
2017-12-17T02:26:53.036Z,81.30
2017-12-17T02:27:26.049Z,81.30
2017-12-17T02:27:59.804Z,81.40
2017-12-17T02:28:32.797Z,81.40
2017-12-17T02:29:05.788Z,81.40
2017-12-17T02:29:38.802Z,81.40
2017-12-17T02:30:12.116Z,81.20
2017-12-17T02:30:45.118Z,81.30
2017-12-17T02:31:18.177Z,81.30
2017-12-17T02:31:51.944Z,81.90
2017-12-17T02:32:24.943Z,81.30
2017-12-17T02:32:57.939Z,81.40
2017-12-17T02:33:30.940Z,81.40
2017-12-17T02:34:03.934Z,81.40
2017-12-17T02:34:36.950Z,81.40
2017-12-17T02:35:10.714Z,81.40
2017-12-17T02:35:43.740Z,81.30
2017-12-17T02:36:16.728Z,81.30
2017-12-17T02:36:49.737Z,81.40
2017-12-17T02:37:22.752Z,81.40
2017-12-17T02:37:55.746Z,81.40
2017-12-17T02:38:28.720Z,81.40
2017-12-17T02:39:01.763Z,81.40
2017-12-17T02:39:34.773Z,81.40
2017-12-17T02:40:07.791Z,81.40
2017-12-17T02:40:40.817Z,81.40
2017-12-17T02:41:13.810Z,81.40
2017-12-17T02:41:46.796Z,81.40
2017-12-17T02:42:19.809Z,81.40
2017-12-17T02:42:53.788Z,81.40
2017-12-17T02:43:26.770Z,81.40
2017-12-17T02:44:00.537Z,81.40
2017-12-17T02:44:33.547Z,81.40
2017-12-17T02:45:07.298Z,81.40
2017-12-17T02:45:40.335Z,81.40
2017-12-17T02:46:13.362Z,81.50
2017-12-17T02:46:46.357Z,81.50
2017-12-17T02:47:20.112Z,81.70
2017-12-17T02:47:53.090Z,81.70
2017-12-17T02:48:26.097Z,81.70
2017-12-17T02:48:59.875Z,81.70
2017-12-17T02:49:33.667Z,81.80
2017-12-17T02:50:07.462Z,81.80
2017-12-17T02:50:41.244Z,81.80
2017-12-17T02:51:15.367Z,81.80
2017-12-17T02:51:48.383Z,81.80
2017-12-17T02:52:21.400Z,81.80
2017-12-17T02:52:55.171Z,82.50
2017-12-17T02:53:28.171Z,81.90
2017-12-17T02:54:01.952Z,82.00
2017-12-17T02:54:35.749Z,82.00
2017-12-17T02:55:08.736Z,82.00
2017-12-17T02:55:41.741Z,81.90
2017-12-17T02:56:14.746Z,81.90
2017-12-17T02:56:48.145Z,81.90
2017-12-17T02:57:21.162Z,81.90
2017-12-17T02:57:55.095Z,81.90
2017-12-17T02:58:28.119Z,81.90
2017-12-17T02:59:01.867Z,81.80
2017-12-17T02:59:34.867Z,81.80
2017-12-17T03:00:08.426Z,81.70
2017-12-17T03:00:41.418Z,81.60
2017-12-17T03:01:14.406Z,81.60
2017-12-17T03:01:48.499Z,81.70
2017-12-17T03:02:22.296Z,81.70
2017-12-17T03:02:56.072Z,81.60
2017-12-17T03:03:29.844Z,81.90
2017-12-17T03:04:02.840Z,81.10
2017-12-17T03:04:36.943Z,80.70
2017-12-17T03:05:10.714Z,81.00
2017-12-17T03:05:43.706Z,80.30
2017-12-17T03:06:17.498Z,79.60
2017-12-17T03:06:51.311Z,79.20
2017-12-17T03:07:24.316Z,79.20
2017-12-17T03:07:57.655Z,79.10
2017-12-17T03:08:31.410Z,79.20
2017-12-17T03:09:04.411Z,79.00
2017-12-17T03:09:38.177Z,79.00
2017-12-17T03:10:11.189Z,79.00
2017-12-17T03:10:44.943Z,78.90
2017-12-17T03:11:18.261Z,79.50
2017-12-17T03:11:52.561Z,78.90
2017-12-17T03:12:26.319Z,79.00
2017-12-17T03:12:59.331Z,79.00
2017-12-17T03:13:33.089Z,78.90
2017-12-17T03:14:06.121Z,78.90
2017-12-17T03:14:39.106Z,79.00
2017-12-17T03:15:12.117Z,79.00
2017-12-17T03:15:45.116Z,79.10
2017-12-17T03:16:18.872Z,79.40
2017-12-17T03:16:51.884Z,79.20
2017-12-17T03:17:24.885Z,79.40
2017-12-17T03:17:57.898Z,79.40
2017-12-17T03:18:30.904Z,79.40
2017-12-17T03:19:04.659Z,79.60
2017-12-17T03:19:37.670Z,79.60
2017-12-17T03:20:11.428Z,79.70
2017-12-17T03:20:44.431Z,79.70
2017-12-17T03:21:18.187Z,79.60
2017-12-17T03:21:51.204Z,79.60
2017-12-17T03:22:24.239Z,79.70
2017-12-17T03:22:57.253Z,79.70
2017-12-17T03:23:31.012Z,79.80
2017-12-17T03:24:04.046Z,79.80
2017-12-17T03:24:37.045Z,79.80
2017-12-17T03:25:10.029Z,79.80
2017-12-17T03:25:43.031Z,79.80
2017-12-17T03:26:16.800Z,79.70
2017-12-17T03:26:49.801Z,79.70
2017-12-17T03:27:23.582Z,80.30
2017-12-17T03:27:57.351Z,79.70
2017-12-17T03:28:30.362Z,79.80
2017-12-17T03:29:04.119Z,79.80
2017-12-17T03:29:37.122Z,79.70
2017-12-17T03:30:10.907Z,79.90
2017-12-17T03:30:44.677Z,79.80
2017-12-17T03:31:17.678Z,79.80
2017-12-17T03:31:51.438Z,79.80
2017-12-17T03:32:24.470Z,79.90
2017-12-17T03:32:57.456Z,79.80
2017-12-17T03:33:30.455Z,79.80
2017-12-17T03:34:03.452Z,79.80
2017-12-17T03:34:36.782Z,80.50
2017-12-17T03:35:09.795Z,80.10
2017-12-17T03:35:42.803Z,79.90
2017-12-17T03:36:15.808Z,79.90
2017-12-17T03:36:48.806Z,79.90
2017-12-17T03:37:21.806Z,79.80
2017-12-17T03:37:55.577Z,79.60
2017-12-17T03:38:28.581Z,79.50
2017-12-17T03:39:02.361Z,79.70
2017-12-17T03:39:35.347Z,79.60
2017-12-17T03:40:09.110Z,79.80
2017-12-17T03:40:42.114Z,79.80
2017-12-17T03:41:15.879Z,79.70
2017-12-17T03:41:48.879Z,79.70
2017-12-17T03:42:22.642Z,79.70
2017-12-17T03:42:55.678Z,79.70
2017-12-17T03:43:28.683Z,79.60
2017-12-17T03:44:01.690Z,79.60
2017-12-17T03:44:35.456Z,79.50
2017-12-17T03:45:08.464Z,79.50
2017-12-17T03:45:42.242Z,79.50
2017-12-17T03:46:15.998Z,79.50
2017-12-17T03:46:48.986Z,79.50
2017-12-17T03:47:21.983Z,79.40
2017-12-17T03:47:56.086Z,79.40
2017-12-17T03:48:29.879Z,79.50
2017-12-17T03:49:03.636Z,79.50
2017-12-17T03:49:36.645Z,79.50
2017-12-17T03:50:10.419Z,79.50
2017-12-17T03:50:43.407Z,79.50
2017-12-17T03:51:17.188Z,79.40
2017-12-17T03:51:50.958Z,78.80
2017-12-17T03:52:23.959Z,79.30
2017-12-17T03:52:58.068Z,79.30
2017-12-17T03:53:31.818Z,79.20
2017-12-17T03:54:04.826Z,79.20
2017-12-17T03:54:38.594Z,79.20
2017-12-17T03:55:11.594Z,79.10
2017-12-17T03:55:45.346Z,79.20
2017-12-17T03:56:18.355Z,79.10
2017-12-17T03:56:52.114Z,79.60
2017-12-17T03:57:25.118Z,78.90
2017-12-17T03:57:58.894Z,78.80
2017-12-17T03:58:31.897Z,78.80
2017-12-17T03:59:05.660Z,78.80
2017-12-17T03:59:38.658Z,78.80
2017-12-17T04:00:12.411Z,78.70
2017-12-17T04:00:45.866Z,78.70
2017-12-17T04:01:18.872Z,78.70
2017-12-17T04:01:51.869Z,79.30
2017-12-17T04:02:25.957Z,79.10
2017-12-17T04:02:59.228Z,78.50
2017-12-17T04:03:32.234Z,78.50
2017-12-17T04:04:06.019Z,78.40
2017-12-17T04:04:39.790Z,78.40
2017-12-17T04:05:12.792Z,78.20
2017-12-17T04:05:46.577Z,78.40
2017-12-17T04:06:20.352Z,78.40
2017-12-17T04:06:53.364Z,78.40
2017-12-17T04:07:26.369Z,78.40
2017-12-17T04:07:59.406Z,78.30
2017-12-17T04:08:33.162Z,78.30
2017-12-17T04:09:06.187Z,78.30
2017-12-17T04:09:39.178Z,78.30
2017-12-17T04:10:12.831Z,78.30
2017-12-17T04:10:45.846Z,78.40
2017-12-17T04:11:18.842Z,78.40
2017-12-17T04:11:51.851Z,78.40
2017-12-17T04:12:25.599Z,78.30
2017-12-17T04:12:58.592Z,78.30
2017-12-17T04:13:31.987Z,78.20
2017-12-17T04:14:06.075Z,78.10
2017-12-17T04:14:39.264Z,78.10
2017-12-17T04:15:13.035Z,78.20
2017-12-17T04:15:46.374Z,78.20
2017-12-17T04:16:19.364Z,78.10
2017-12-17T04:16:52.693Z,78.10
2017-12-17T04:17:26.462Z,78.30
2017-12-17T04:17:59.459Z,78.20
2017-12-17T04:18:33.246Z,78.30
2017-12-17T04:19:07.021Z,78.90
2017-12-17T04:19:40.045Z,78.40
2017-12-17T04:20:13.039Z,78.40
2017-12-17T04:20:46.037Z,78.50
2017-12-17T04:21:19.698Z,78.50
2017-12-17T04:21:53.030Z,79.20
2017-12-17T04:22:26.823Z,78.50
2017-12-17T04:23:00.599Z,78.50
2017-12-17T04:23:33.634Z,78.40
2017-12-17T04:24:07.299Z,78.40
2017-12-17T04:24:40.358Z,78.50
2017-12-17T04:25:14.452Z,78.40
2017-12-17T04:25:48.231Z,78.40
2017-12-17T04:26:21.237Z,78.40
2017-12-17T04:26:54.990Z,78.40
2017-12-17T04:27:27.988Z,78.40
2017-12-17T04:28:01.753Z,78.50
2017-12-17T04:28:34.790Z,78.50
2017-12-17T04:29:08.480Z,78.60
2017-12-17T04:29:41.514Z,78.70
2017-12-17T04:30:15.275Z,78.90
2017-12-17T04:30:48.267Z,78.80
2017-12-17T04:31:21.259Z,78.90
2017-12-17T04:31:55.014Z,78.90
2017-12-17T04:32:28.010Z,78.90
2017-12-17T04:33:01.341Z,79.00
2017-12-17T04:33:34.343Z,79.40
2017-12-17T04:34:07.689Z,79.10
2017-12-17T04:34:40.694Z,79.10
2017-12-17T04:35:14.029Z,79.10
2017-12-17T04:35:47.802Z,79.20
2017-12-17T04:36:22.207Z,79.40
2017-12-17T04:36:55.977Z,79.30
2017-12-17T04:37:28.979Z,79.10
2017-12-17T04:38:03.404Z,79.10
2017-12-17T04:38:36.735Z,79.10
2017-12-17T04:39:10.772Z,79.20
2017-12-17T04:39:44.904Z,79.30
2017-12-17T04:40:17.902Z,79.20
2017-12-17T04:40:50.947Z,79.30
2017-12-17T04:41:23.955Z,79.30
2017-12-17T04:41:56.956Z,79.20
2017-12-17T04:42:29.946Z,79.10
2017-12-17T04:43:03.702Z,79.30
2017-12-17T04:43:36.695Z,79.30
2017-12-17T04:44:10.810Z,79.30
2017-12-17T04:44:44.570Z,79.20
2017-12-17T04:45:18.225Z,79.20
2017-12-17T04:45:51.258Z,79.20
2017-12-17T04:46:25.016Z,79.30
2017-12-17T04:46:58.026Z,79.30
2017-12-17T04:47:31.788Z,79.30
2017-12-17T04:48:04.789Z,79.30
2017-12-17T04:48:38.546Z,79.30
2017-12-17T04:49:11.558Z,79.30
2017-12-17T04:49:45.307Z,79.30
2017-12-17T04:50:18.633Z,79.30
2017-12-17T04:50:52.731Z,79.40
2017-12-17T04:51:26.830Z,79.40
2017-12-17T04:52:00.923Z,79.40
2017-12-17T04:52:39.285Z,79.40
2017-12-17T04:53:12.626Z,79.40
2017-12-17T04:53:46.095Z,79.50
2017-12-17T04:54:22.751Z,79.50
2017-12-17T04:54:56.671Z,79.60
2017-12-17T04:55:33.209Z,79.50
2017-12-17T04:56:07.891Z,79.70
2017-12-17T04:56:40.990Z,79.60
2017-12-17T04:57:14.750Z,79.70
2017-12-17T04:57:52.057Z,79.70
2017-12-17T04:58:25.820Z,79.90
2017-12-17T04:58:58.826Z,79.90
2017-12-17T04:59:33.274Z,80.00
2017-12-17T05:00:06.272Z,80.00
2017-12-17T05:00:40.078Z,80.00
2017-12-17T05:01:13.418Z,80.00
2017-12-17T05:01:46.735Z,80.10
2017-12-17T05:02:20.079Z,80.10
2017-12-17T05:02:53.075Z,80.20
2017-12-17T05:03:26.062Z,80.20
2017-12-17T05:03:59.390Z,80.20
2017-12-17T05:04:32.441Z,80.20
2017-12-17T05:05:05.458Z,80.20
2017-12-17T05:05:38.818Z,80.20
2017-12-17T05:06:11.817Z,80.20
2017-12-17T05:06:44.811Z,80.20
2017-12-17T05:07:17.835Z,80.10
2017-12-17T05:07:50.834Z,80.10
2017-12-17T05:08:23.811Z,80.10
2017-12-17T05:08:56.790Z,80.10
2017-12-17T05:09:30.127Z,80.10
2017-12-17T05:10:03.890Z,80.20
2017-12-17T05:10:37.245Z,80.10
2017-12-17T05:11:10.241Z,80.20
2017-12-17T05:11:43.890Z,80.20
2017-12-17T05:12:17.206Z,80.10
2017-12-17T05:12:50.191Z,80.10
2017-12-17T05:13:23.186Z,80.10
2017-12-17T05:13:57.314Z,80.10
2017-12-17T05:14:30.309Z,80.00
2017-12-17T05:15:03.654Z,80.00
2017-12-17T05:15:37.335Z,80.00
2017-12-17T05:16:11.446Z,80.10
2017-12-17T05:16:44.435Z,80.10
2017-12-17T05:17:17.446Z,80.70
2017-12-17T05:17:50.767Z,80.10
2017-12-17T05:18:24.527Z,80.10
2017-12-17T05:18:57.525Z,80.20
2017-12-17T05:19:31.292Z,80.20
2017-12-17T05:20:05.709Z,80.20
2017-12-17T05:20:38.730Z,80.20
2017-12-17T05:21:11.731Z,79.80
2017-12-17T05:21:44.739Z,80.10
2017-12-17T05:22:17.730Z,80.10
2017-12-17T05:22:50.743Z,80.10
2017-12-17T05:23:23.774Z,80.10
2017-12-17T05:23:57.565Z,80.20
2017-12-17T05:24:31.669Z,80.30
2017-12-17T05:25:05.766Z,80.40
2017-12-17T05:25:39.445Z,80.40
2017-12-17T05:26:13.559Z,80.50
2017-12-17T05:26:46.566Z,80.40
2017-12-17T05:27:20.259Z,80.50
2017-12-17T05:27:53.264Z,80.50
2017-12-17T05:28:26.259Z,80.60
2017-12-17T05:29:00.022Z,80.70
2017-12-17T05:29:33.018Z,80.70
2017-12-17T05:30:05.997Z,80.80
2017-12-17T05:30:39.775Z,80.90
2017-12-17T05:31:12.763Z,80.80
2017-12-17T05:31:46.868Z,81.10
2017-12-17T05:32:20.653Z,81.20
2017-12-17T05:32:54.410Z,81.20
2017-12-17T05:33:27.736Z,81.20
2017-12-17T05:34:01.486Z,81.30
2017-12-17T05:34:34.502Z,81.30
2017-12-17T05:35:08.600Z,81.40
2017-12-17T05:35:42.391Z,81.50
2017-12-17T05:36:16.485Z,81.60
2017-12-17T05:36:50.235Z,82.30
2017-12-17T05:37:23.554Z,81.70
2017-12-17T05:37:57.634Z,81.70
2017-12-17T05:38:32.495Z,81.80
2017-12-17T05:39:05.486Z,81.80
2017-12-17T05:39:38.867Z,81.80
2017-12-17T05:40:11.974Z,81.90
2017-12-17T05:40:45.322Z,81.90
2017-12-17T05:41:18.331Z,81.90
2017-12-17T05:41:51.306Z,82.00
2017-12-17T05:42:27.024Z,82.10
2017-12-17T05:43:00.012Z,82.10
2017-12-17T05:43:33.364Z,82.00
2017-12-17T05:44:06.379Z,82.20
2017-12-17T05:44:39.542Z,82.20
2017-12-17T05:45:12.858Z,82.30
2017-12-17T05:45:46.786Z,82.50
2017-12-17T05:46:20.105Z,82.50
2017-12-17T05:46:53.431Z,82.60
2017-12-17T05:47:26.422Z,82.60
2017-12-17T05:47:59.410Z,82.70
2017-12-17T05:48:32.423Z,83.40
2017-12-17T05:49:05.415Z,82.80
2017-12-17T05:49:39.172Z,83.00
2017-12-17T05:50:12.195Z,83.00
2017-12-17T05:50:45.195Z,83.00
2017-12-17T05:51:18.835Z,83.10
2017-12-17T05:51:52.937Z,83.20
2017-12-17T05:52:26.699Z,83.20
2017-12-17T05:52:59.700Z,83.20
2017-12-17T05:53:33.463Z,83.30
2017-12-17T05:54:06.453Z,83.30
2017-12-17T05:54:39.440Z,83.30
2017-12-17T05:55:12.780Z,83.90
2017-12-17T05:55:45.832Z,83.30
2017-12-17T05:56:18.974Z,83.30
2017-12-17T05:56:52.768Z,83.20
2017-12-17T05:57:26.865Z,83.30
2017-12-17T05:58:00.382Z,83.10
2017-12-17T05:58:33.374Z,83.20
2017-12-17T05:59:06.362Z,83.10
2017-12-17T05:59:39.683Z,83.00
2017-12-17T06:00:13.443Z,82.90
2017-12-17T06:00:46.768Z,82.80
2017-12-17T06:01:20.548Z,82.80
2017-12-17T06:01:54.975Z,82.70
2017-12-17T06:02:27.986Z,82.70
2017-12-17T06:03:01.646Z,82.60
2017-12-17T06:03:34.636Z,82.60
2017-12-17T06:04:07.627Z,82.50
2017-12-17T06:04:40.956Z,82.50
2017-12-17T06:05:14.730Z,82.50
2017-12-17T06:05:48.810Z,82.50
2017-12-17T06:06:22.167Z,82.40
2017-12-17T06:06:55.166Z,82.40
2017-12-17T06:07:28.165Z,82.40
2017-12-17T06:08:02.572Z,82.50
2017-12-17T06:08:36.339Z,82.80
2017-12-17T06:09:10.337Z,82.40
2017-12-17T06:09:43.340Z,82.40
2017-12-17T06:10:17.098Z,82.60
2017-12-17T06:10:50.098Z,82.60
2017-12-17T06:11:23.891Z,82.80
2017-12-17T06:11:57.987Z,82.70
2017-12-17T06:12:31.766Z,82.80
2017-12-17T06:13:04.759Z,82.80
2017-12-17T06:13:38.507Z,82.80
2017-12-17T06:14:11.504Z,82.70
2017-12-17T06:14:44.853Z,82.80
2017-12-17T06:15:17.853Z,82.80
2017-12-17T06:15:51.190Z,82.80
2017-12-17T06:16:24.598Z,83.50
2017-12-17T06:16:57.599Z,83.00
2017-12-17T06:17:30.586Z,83.00
2017-12-17T06:18:04.350Z,83.00
2017-12-17T06:18:37.726Z,82.90
2017-12-17T06:19:10.719Z,83.00
2017-12-17T06:19:43.719Z,83.10
2017-12-17T06:20:17.792Z,83.20
2017-12-17T06:20:51.123Z,83.20
2017-12-17T06:21:24.172Z,83.70
2017-12-17T06:21:57.932Z,83.30
2017-12-17T06:22:30.928Z,83.30
2017-12-17T06:23:04.700Z,83.30
2017-12-17T06:23:37.707Z,83.30
2017-12-17T06:24:11.465Z,83.30
2017-12-17T06:24:44.459Z,83.30
2017-12-17T06:25:18.559Z,83.40
2017-12-17T06:25:52.663Z,83.50
2017-12-17T06:26:26.461Z,83.50
2017-12-17T06:27:00.223Z,83.60
2017-12-17T06:27:33.233Z,83.50
2017-12-17T06:28:06.226Z,83.50
2017-12-17T06:28:39.228Z,83.50
2017-12-17T06:29:12.225Z,83.50
2017-12-17T06:29:45.241Z,83.50
2017-12-17T06:30:18.258Z,83.50
2017-12-17T06:30:51.237Z,83.40
2017-12-17T06:31:24.562Z,83.40
2017-12-17T06:31:57.588Z,83.40
2017-12-17T06:32:30.575Z,83.40
2017-12-17T06:33:03.909Z,83.30
2017-12-17T06:33:36.893Z,83.30
2017-12-17T06:34:09.893Z,83.30
2017-12-17T06:34:42.924Z,83.30
2017-12-17T06:35:15.922Z,83.30
2017-12-17T06:35:48.917Z,83.30
2017-12-17T06:36:21.931Z,83.30
2017-12-17T06:36:56.026Z,83.20
2017-12-17T06:37:29.059Z,83.20
2017-12-17T06:38:02.060Z,83.20
2017-12-17T06:38:35.831Z,83.40
2017-12-17T06:39:09.153Z,83.30
2017-12-17T06:39:43.334Z,83.30
2017-12-17T06:40:17.406Z,83.90
2017-12-17T06:40:50.730Z,83.30
2017-12-17T06:41:24.509Z,83.50
2017-12-17T06:41:58.269Z,83.60
2017-12-17T06:42:31.286Z,83.60
2017-12-17T06:43:04.293Z,83.60
2017-12-17T06:43:37.290Z,83.60
2017-12-17T06:44:10.293Z,83.60
2017-12-17T06:44:44.054Z,83.70
2017-12-17T06:45:17.362Z,83.60
2017-12-17T06:45:52.058Z,83.60
2017-12-17T06:46:25.051Z,83.50
2017-12-17T06:46:59.257Z,83.50
2017-12-17T06:47:33.029Z,83.50
2017-12-17T06:48:06.038Z,83.50
2017-12-17T06:48:39.034Z,83.50
2017-12-17T06:49:12.034Z,83.50
2017-12-17T06:49:45.014Z,83.60
2017-12-17T06:50:18.013Z,83.50
2017-12-17T06:50:51.775Z,83.40
2017-12-17T06:51:25.094Z,83.40
2017-12-17T06:51:58.850Z,83.40
2017-12-17T06:52:32.171Z,83.40
2017-12-17T06:53:05.200Z,83.40
2017-12-17T06:53:38.601Z,83.40
2017-12-17T06:54:11.592Z,83.50
2017-12-17T06:54:45.345Z,83.50
2017-12-17T06:55:18.681Z,83.50
2017-12-17T06:55:51.671Z,83.60
2017-12-17T06:56:25.014Z,83.60
2017-12-17T06:56:59.159Z,83.60
2017-12-17T06:57:32.501Z,83.50
2017-12-17T06:58:06.587Z,83.60
2017-12-17T06:58:39.597Z,83.50
2017-12-17T06:59:12.600Z,83.60
2017-12-17T06:59:45.590Z,83.60
2017-12-17T07:00:18.590Z,83.60
2017-12-17T07:00:52.695Z,83.60
2017-12-17T07:01:26.468Z,83.60
2017-12-17T07:01:59.856Z,83.60
2017-12-17T07:02:33.174Z,83.50
2017-12-17T07:03:06.859Z,83.40
2017-12-17T07:03:39.856Z,83.40
2017-12-17T07:04:12.839Z,83.40
2017-12-17T07:04:45.867Z,83.30
2017-12-17T07:05:19.962Z,83.30
2017-12-17T07:05:53.759Z,83.30
2017-12-17T07:06:27.511Z,83.30
2017-12-17T07:07:00.828Z,83.30
2017-12-17T07:07:35.234Z,83.30
2017-12-17T07:08:09.620Z,83.40
2017-12-17T07:08:42.613Z,83.30
2017-12-17T07:09:17.412Z,83.40
2017-12-17T07:09:50.419Z,83.40
2017-12-17T07:10:23.426Z,83.50
2017-12-17T07:10:56.466Z,83.50
2017-12-17T07:11:29.469Z,83.60